createdAt,value
2022-11-06T00:02:14.793Z,99254.78
2022-11-06T00:05:38.917Z,99249.97
2022-11-06T00:08:42.617Z,99248.97
2022-11-06T00:11:48.641Z,99258.59
2022-11-06T00:14:52.388Z,99241.72
2022-11-06T00:17:56.216Z,99244.19
2022-11-06T00:20:59.821Z,99243.72
2022-11-06T00:24:05.564Z,99236.97
2022-11-06T00:27:10.759Z,99229.25
2022-11-06T00:30:14.519Z,99243.72
2022-11-06T00:33:18.249Z,99232.69
2022-11-06T00:36:24.598Z,99235.75
2022-11-06T00:39:28.326Z,99228.91
2022-11-06T00:42:33.838Z,99238.06
2022-11-06T00:45:37.575Z,99239.34
2022-11-06T00:48:43.085Z,99229.44
2022-11-06T00:51:46.833Z,99251.25
2022-11-06T00:54:50.492Z,99254.47
2022-11-06T00:57:55.562Z,99237.91
2022-11-06T01:01:07.756Z,99246.00
2022-11-06T01:04:14.777Z,99235.88
2022-11-06T01:07:18.898Z,99241.44
2022-11-06T01:10:22.629Z,99246.50
2022-11-06T01:13:27.771Z,99244.25
2022-11-06T01:16:32.380Z,99244.59
2022-11-06T01:19:35.925Z,99249.31
2022-11-06T01:22:39.652Z,99247.50
2022-11-06T01:25:43.499Z,99254.28
2022-11-06T01:28:48.925Z,99252.97
2022-11-06T01:31:52.731Z,99262.34
2022-11-06T01:34:56.428Z,99256.16
2022-11-06T01:38:00.045Z,99260.75
2022-11-06T01:41:03.759Z,99257.72
2022-11-06T01:44:47.218Z,99246.44
2022-11-06T01:47:51.196Z,99242.28
2022-11-06T01:50:58.168Z,99239.88
2022-11-06T01:54:04.689Z,99247.19
2022-11-06T01:57:08.922Z,99250.19
2022-11-06T02:00:15.393Z,99251.75
2022-11-06T02:03:19.964Z,99258.47
2022-11-06T02:06:24.052Z,99253.69
2022-11-06T02:09:28.288Z,99260.06
2022-11-06T02:12:43.478Z,99250.25
2022-11-06T02:15:54.084Z,99241.44
2022-11-06T02:19:09.574Z,99245.19
2022-11-06T02:22:27.885Z,99244.06
2022-11-06T02:25:43.732Z,99252.06
2022-11-06T02:28:54.966Z,99245.44
2022-11-06T02:32:05.529Z,99254.59
2022-11-06T02:35:19.738Z,99250.63
2022-11-06T02:38:27.725Z,99243.00
2022-11-06T02:41:34.197Z,99245.63
2022-11-06T02:44:40.796Z,99253.81
2022-11-06T02:47:46.438Z,99252.75
2022-11-06T02:50:52.537Z,99247.75
2022-11-06T02:54:00.501Z,99260.63
2022-11-06T02:57:10.032Z,99255.03
2022-11-06T03:00:18.072Z,99254.38
2022-11-06T03:03:25.727Z,99261.69
2022-11-06T03:06:34.405Z,99248.56
2022-11-06T03:09:38.200Z,99246.53
2022-11-06T03:12:54.728Z,99255.03
2022-11-06T03:16:05.793Z,99254.31
2022-11-06T03:19:20.553Z,99254.56
2022-11-06T03:22:32.393Z,99256.75
2022-11-06T03:25:43.580Z,99253.41
2022-11-06T03:28:53.099Z,99249.84
2022-11-06T03:32:01.317Z,99257.16
2022-11-06T03:35:13.677Z,99264.38
2022-11-06T03:38:21.894Z,99252.94
2022-11-06T03:41:31.426Z,99256.94
2022-11-06T03:44:40.963Z,99254.13
2022-11-06T03:47:49.355Z,99260.13
2022-11-06T03:51:02.258Z,99260.59
2022-11-06T03:54:08.332Z,99243.44
2022-11-06T03:57:15.927Z,99243.09
2022-11-06T04:00:21.236Z,99243.84
2022-11-06T04:03:32.163Z,99248.63
2022-11-06T04:06:42.000Z,99243.63
2022-11-06T04:10:17.828Z,99256.22
2022-11-06T04:13:41.585Z,99274.47
2022-11-06T04:16:49.909Z,99269.22
2022-11-06T04:19:58.978Z,99265.34
2022-11-06T04:23:10.764Z,99270.03
2022-11-06T04:26:37.795Z,99262.88
2022-11-06T04:30:04.245Z,99261.78
2022-11-06T04:33:15.470Z,99282.16
2022-11-06T04:36:29.507Z,99271.53
2022-11-06T04:39:41.730Z,99264.78
2022-11-06T04:42:52.632Z,99265.72
2022-11-06T04:45:59.318Z,99256.44
2022-11-06T04:49:05.628Z,99259.81
2022-11-06T04:52:15.635Z,99262.28
2022-11-06T04:55:19.478Z,99273.13
2022-11-06T04:58:23.204Z,99285.75
2022-11-06T05:01:27.817Z,99282.94
2022-11-06T05:04:32.627Z,99278.16
2022-11-06T05:07:37.779Z,99263.44
2022-11-06T05:10:41.420Z,99262.97
2022-11-06T05:13:45.538Z,99266.28
2022-11-06T05:16:49.217Z,99276.78
2022-11-06T05:19:52.813Z,99274.06
2022-11-06T05:23:00.739Z,99291.25
2022-11-06T05:26:04.718Z,99300.06
2022-11-06T05:29:08.280Z,99300.72
2022-11-06T05:32:11.996Z,99302.13
2022-11-06T05:35:15.647Z,99305.19
2022-11-06T05:38:20.914Z,99304.63
2022-11-06T05:41:24.647Z,99295.66
2022-11-06T05:44:28.321Z,99303.13
2022-11-06T05:47:32.067Z,99302.44
2022-11-06T05:50:35.886Z,99313.50
2022-11-06T05:53:41.968Z,99324.72
2022-11-06T05:56:45.725Z,99326.81
2022-11-06T05:59:49.574Z,99329.63
2022-11-06T06:02:53.521Z,99339.38
2022-11-06T06:05:57.488Z,99332.47
2022-11-06T06:09:02.669Z,99345.03
2022-11-06T06:12:07.106Z,99355.44
2022-11-06T06:15:14.239Z,99358.22
2022-11-06T06:18:17.938Z,99366.63
2022-11-06T06:21:21.536Z,99368.59
2022-11-06T06:24:26.783Z,99365.06
2022-11-06T06:27:31.388Z,99372.34
2022-11-06T06:30:36.131Z,99379.91
2022-11-06T06:33:39.817Z,99374.69
2022-11-06T06:36:43.626Z,99381.56
2022-11-06T06:39:48.769Z,99383.19
2022-11-06T06:42:52.612Z,99392.44
2022-11-06T06:45:59.460Z,99387.72
2022-11-06T06:49:03.328Z,99391.16
2022-11-06T06:52:08.117Z,99390.84
2022-11-06T06:55:13.305Z,99402.91
2022-11-06T06:58:18.176Z,99396.25
2022-11-06T07:01:22.121Z,99403.25
2022-11-06T07:04:25.949Z,99410.81
2022-11-06T07:07:29.779Z,99407.00
2022-11-06T07:10:35.128Z,99414.47
2022-11-06T07:13:39.053Z,99432.88
2022-11-06T07:16:43.073Z,99425.63
2022-11-06T07:19:47.145Z,99424.28
2022-11-06T07:22:51.099Z,99420.09
2022-11-06T07:25:56.750Z,99418.59
2022-11-06T07:29:00.528Z,99433.53
2022-11-06T07:32:04.408Z,99423.38
2022-11-06T07:35:09.139Z,99426.03
2022-11-06T07:38:13.352Z,99419.75
2022-11-06T07:41:19.809Z,99418.38
2022-11-06T07:44:23.506Z,99417.03
2022-11-06T07:47:27.858Z,99421.75
2022-11-06T07:50:32.616Z,99419.19
2022-11-06T07:53:37.035Z,99425.75
2022-11-06T07:56:42.285Z,99426.94
2022-11-06T07:59:45.965Z,99444.31
2022-11-06T08:02:53.628Z,99440.19
2022-11-06T08:05:57.895Z,99449.41
2022-11-06T08:09:01.829Z,99459.22
2022-11-06T08:12:10.588Z,99459.00
2022-11-06T08:15:14.391Z,99464.88
2022-11-06T08:18:18.528Z,99462.94
2022-11-06T08:21:22.339Z,99479.81
2022-11-06T08:24:26.168Z,99487.34
2022-11-06T08:27:31.410Z,99484.94
2022-11-06T08:30:35.387Z,99484.00
2022-11-06T08:33:40.900Z,99489.59
2022-11-06T08:36:49.715Z,99502.00
2022-11-06T08:39:53.625Z,99505.75
2022-11-06T08:43:01.958Z,99509.72
2022-11-06T08:46:06.385Z,99511.47
2022-11-06T08:49:11.335Z,99511.22
2022-11-06T08:52:15.077Z,99507.69
2022-11-06T08:55:19.189Z,99515.22
2022-11-06T08:58:24.433Z,99506.97
2022-11-06T09:01:31.146Z,99485.69
2022-11-06T09:04:40.116Z,99490.16
2022-11-06T09:07:45.025Z,99490.88
2022-11-06T09:10:48.986Z,99488.22
2022-11-06T09:13:54.264Z,99503.47
2022-11-06T09:16:58.689Z,99501.56
2022-11-06T09:20:02.490Z,99506.56
2022-11-06T09:23:13.360Z,99507.47
2022-11-06T09:26:17.899Z,99514.00
2022-11-06T09:29:23.126Z,99500.00
2022-11-06T09:32:27.029Z,99484.91
2022-11-06T09:35:32.704Z,99468.53
2022-11-06T09:38:36.590Z,99471.44
2022-11-06T09:41:53.632Z,99487.81
2022-11-06T09:45:09.478Z,99468.25
2022-11-06T09:48:21.959Z,99468.69
2022-11-06T09:51:33.155Z,99466.69
2022-11-06T09:54:43.714Z,99475.31
2022-11-06T09:57:52.762Z,99484.38
2022-11-06T10:01:01.213Z,99499.22
2022-11-06T10:04:06.230Z,99497.81
2022-11-06T10:07:21.081Z,99505.66
2022-11-06T10:10:32.146Z,99492.91
2022-11-06T10:13:55.909Z,99496.09
2022-11-06T10:17:16.106Z,99499.16
2022-11-06T10:20:27.275Z,99492.59
2022-11-06T10:23:45.778Z,99494.75
2022-11-06T10:26:58.018Z,99487.59
2022-11-06T10:30:11.064Z,99479.34
2022-11-06T10:33:30.285Z,99477.22
2022-11-06T10:36:52.749Z,99477.19
2022-11-06T10:40:05.839Z,99472.56
2022-11-06T10:43:23.999Z,99475.03
2022-11-06T10:46:36.346Z,99481.31
2022-11-06T10:49:48.268Z,99482.19
2022-11-06T10:53:00.626Z,99481.50
2022-11-06T10:56:21.373Z,99475.56
2022-11-06T10:59:29.143Z,99472.06
2022-11-06T11:02:37.034Z,99471.31
2022-11-06T11:05:46.835Z,99467.84
2022-11-06T11:08:56.108Z,99457.06
2022-11-06T11:12:00.736Z,99454.06
2022-11-06T11:15:16.846Z,99455.69
2022-11-06T11:18:31.185Z,99461.69
2022-11-06T11:21:39.348Z,99451.38
2022-11-06T11:25:03.814Z,99456.38
2022-11-06T11:28:22.174Z,99447.38
2022-11-06T11:31:32.145Z,99447.38
2022-11-06T11:34:40.620Z,99442.38
2022-11-06T11:37:49.558Z,99445.38
2022-11-06T11:41:06.944Z,99446.88
2022-11-06T11:44:17.985Z,99448.66
2022-11-06T11:47:27.178Z,99451.41
2022-11-06T11:50:38.207Z,99451.34
2022-11-06T11:53:51.870Z,99442.91
2022-11-06T11:57:07.759Z,99443.88
2022-11-06T12:00:20.606Z,99439.50
2022-11-06T12:03:29.009Z,99435.81
2022-11-06T12:06:37.094Z,99438.41
2022-11-06T12:09:55.049Z,99439.44
2022-11-06T12:13:01.888Z,99453.03
2022-11-06T12:16:13.945Z,99452.13
2022-11-06T12:19:24.685Z,99462.06
2022-11-06T12:22:35.304Z,99458.28
2022-11-06T12:25:52.005Z,99450.34
2022-11-06T12:29:04.887Z,99435.25
2022-11-06T12:32:21.278Z,99442.25
2022-11-06T12:35:29.557Z,99439.81
2022-11-06T12:38:44.469Z,99437.63
2022-11-06T12:41:53.330Z,99431.38
2022-11-06T12:45:00.219Z,99436.22
2022-11-06T12:48:13.100Z,99436.06
2022-11-06T12:51:26.414Z,99432.03
2022-11-06T12:54:46.422Z,99421.22
2022-11-06T12:58:06.637Z,99426.78
2022-11-06T13:01:20.748Z,99426.47
2022-11-06T13:04:38.324Z,99417.41
2022-11-06T13:08:14.867Z,99426.84
2022-11-06T13:11:32.037Z,99432.59
2022-11-06T13:14:43.374Z,99431.03
2022-11-06T13:17:53.731Z,99438.22
2022-11-06T13:21:01.125Z,99436.50
2022-11-06T13:24:12.568Z,99434.75
2022-11-06T13:27:26.275Z,99433.66
2022-11-06T13:30:33.656Z,99432.63
2022-11-06T13:33:43.727Z,99430.72
2022-11-06T13:36:48.428Z,99428.59
2022-11-06T13:40:02.972Z,99434.97
2022-11-06T13:43:09.394Z,99431.75
2022-11-06T13:46:26.202Z,99437.03
2022-11-06T13:49:38.539Z,99431.09
2022-11-06T13:52:50.883Z,99427.28
2022-11-06T13:56:07.334Z,99427.44
2022-11-06T13:59:32.782Z,99419.50
2022-11-06T14:03:02.285Z,99422.41
2022-11-06T14:06:08.365Z,99437.41
2022-11-06T14:09:18.227Z,99433.66
2022-11-06T14:12:24.625Z,99426.56
2022-11-06T14:15:37.900Z,99435.28
2022-11-06T14:18:43.618Z,99436.41
2022-11-06T14:21:49.869Z,99422.97
2022-11-06T14:24:59.970Z,99434.00
2022-11-06T14:28:07.615Z,99424.22
2022-11-06T14:31:14.807Z,99434.53
2022-11-06T14:34:31.883Z,99429.84
2022-11-06T14:37:50.228Z,99421.88
2022-11-06T14:40:54.108Z,99420.03
2022-11-06T14:43:59.696Z,99416.63
2022-11-06T14:47:07.097Z,99420.31
2022-11-06T14:50:27.269Z,99422.16
2022-11-06T14:53:36.004Z,99422.59
2022-11-06T14:56:40.377Z,99427.09
2022-11-06T14:59:44.674Z,99430.56
2022-11-06T15:02:49.934Z,99429.94
2022-11-06T15:06:01.089Z,99431.31
2022-11-06T15:09:06.596Z,99440.19
2022-11-06T15:12:10.257Z,99440.38
2022-11-06T15:15:20.408Z,99438.56
2022-11-06T15:18:26.456Z,99442.19
2022-11-06T15:21:34.438Z,99445.72
2022-11-06T15:24:43.014Z,99438.81
2022-11-06T15:27:54.168Z,99440.34
2022-11-06T15:31:02.767Z,99444.97
2022-11-06T15:34:14.490Z,99451.38
2022-11-06T15:37:23.126Z,99458.13
2022-11-06T15:40:30.119Z,99455.50
2022-11-06T15:43:37.648Z,99452.78
2022-11-06T15:46:54.579Z,99467.03
2022-11-06T15:50:15.688Z,99473.84
2022-11-06T15:53:23.847Z,99482.97
2022-11-06T15:56:33.375Z,99486.28
2022-11-06T15:59:37.106Z,99480.28
2022-11-06T16:02:50.878Z,99484.19
2022-11-06T16:05:56.405Z,99489.59
2022-11-06T16:09:03.548Z,99488.06
2022-11-06T16:12:08.026Z,99495.72
2022-11-06T16:15:44.826Z,99496.53
2022-11-06T16:18:49.595Z,99489.34
2022-11-06T16:21:57.486Z,99498.19
2022-11-06T16:25:05.399Z,99492.59
2022-11-06T16:28:17.565Z,99496.00
2022-11-06T16:31:24.675Z,99494.38
2022-11-06T16:34:44.190Z,99497.63
2022-11-06T16:37:48.055Z,99502.34
2022-11-06T16:40:54.505Z,99505.25
2022-11-06T16:44:27.807Z,99503.53
2022-11-06T16:47:34.433Z,99512.97
2022-11-06T16:50:46.439Z,99520.75
2022-11-06T16:53:56.378Z,99526.13
2022-11-06T16:57:10.681Z,99527.13
2022-11-06T17:00:26.047Z,99530.72
2022-11-06T17:03:36.319Z,99529.75
2022-11-06T17:06:40.166Z,99547.50
2022-11-06T17:09:44.295Z,99542.44
2022-11-06T17:12:49.485Z,99545.47
2022-11-06T17:15:56.619Z,99556.31
2022-11-06T17:19:00.498Z,99561.88
2022-11-06T17:22:07.145Z,99567.31
2022-11-06T17:25:11.132Z,99570.84
2022-11-06T17:28:16.758Z,99581.97
2022-11-06T17:31:21.760Z,99590.13
2022-11-06T17:34:25.596Z,99590.72
2022-11-06T17:37:29.489Z,99603.53
2022-11-06T17:40:33.354Z,99606.75
2022-11-06T17:43:38.565Z,99602.53
2022-11-06T17:46:44.816Z,99601.81
2022-11-06T17:49:49.044Z,99608.09
2022-11-06T17:52:52.846Z,99619.00
2022-11-06T17:55:56.698Z,99623.34
2022-11-06T17:59:01.929Z,99622.44
2022-11-06T18:02:06.051Z,99629.44
2022-11-06T18:05:10.610Z,99633.13
2022-11-06T18:08:15.918Z,99633.78
2022-11-06T18:11:20.033Z,99628.03
2022-11-06T18:14:26.654Z,99628.97
2022-11-06T18:17:30.305Z,99634.72
2022-11-06T18:20:34.068Z,99640.06
2022-11-06T18:23:37.915Z,99634.50
2022-11-06T18:26:43.089Z,99647.75
2022-11-06T18:29:48.306Z,99634.31
2022-11-06T18:32:52.098Z,99645.94
2022-11-06T18:35:55.886Z,99653.94
2022-11-06T18:38:59.805Z,99661.75
2022-11-06T18:42:04.213Z,99653.47
2022-11-06T18:45:10.328Z,99653.31
2022-11-06T18:48:19.796Z,99659.28
2022-11-06T18:51:35.029Z,99650.81
2022-11-06T18:54:39.958Z,99655.94
2022-11-06T18:57:43.911Z,99661.44
2022-11-06T19:00:49.148Z,99659.84
2022-11-06T19:03:54.179Z,99670.63
2022-11-06T19:06:57.867Z,99662.72
2022-11-06T19:10:05.177Z,99674.34
2022-11-06T19:13:08.837Z,99682.97
2022-11-06T19:16:14.591Z,99683.06
2022-11-06T19:19:25.247Z,99694.13
2022-11-06T19:22:31.278Z,99685.44
2022-11-06T19:25:35.157Z,99681.97
2022-11-06T19:28:38.926Z,99689.41
2022-11-06T19:31:44.207Z,99691.84
2022-11-06T19:34:48.184Z,99687.69
2022-11-06T19:37:52.470Z,99685.72
2022-11-06T19:40:57.880Z,99690.75
2022-11-06T19:44:01.788Z,99692.88
2022-11-06T19:47:07.032Z,99695.50
2022-11-06T19:50:11.394Z,99707.84
2022-11-06T19:53:18.549Z,99704.50
2022-11-06T19:56:23.437Z,99716.63
2022-11-06T19:59:27.066Z,99716.91
2022-11-06T20:02:32.555Z,99716.34
2022-11-06T20:05:36.729Z,99717.78
2022-11-06T20:08:40.645Z,99719.78
2022-11-06T20:11:44.678Z,99723.28
2022-11-06T20:14:49.375Z,99729.38
2022-11-06T20:17:54.608Z,99714.88
2022-11-06T20:21:02.119Z,99727.41
2022-11-06T20:24:08.545Z,99728.88
2022-11-06T20:27:12.858Z,99732.72
2022-11-06T20:30:17.243Z,99731.19
2022-11-06T20:33:22.588Z,99728.69
2022-11-06T20:36:28.144Z,99730.31
2022-11-06T20:39:32.260Z,99737.00
2022-11-06T20:42:36.135Z,99739.09
2022-11-06T20:45:41.141Z,99736.56
2022-11-06T20:48:47.257Z,99746.91
2022-11-06T20:52:12.743Z,99750.81
2022-11-06T20:55:15.177Z,99745.66
2022-11-06T20:58:18.854Z,99744.84
2022-11-06T21:01:24.421Z,99753.56
2022-11-06T21:04:29.833Z,99760.63
2022-11-06T21:07:35.387Z,99765.63
2022-11-06T21:10:39.749Z,99768.38
2022-11-06T21:13:44.297Z,99769.84
2022-11-06T21:16:48.317Z,99772.78
2022-11-06T21:19:53.744Z,99765.38
2022-11-06T21:22:57.738Z,99767.94
2022-11-06T21:26:06.900Z,99773.56
2022-11-06T21:29:12.213Z,99769.13
2022-11-06T21:32:15.988Z,99769.59
2022-11-06T21:35:21.352Z,99780.59
2022-11-06T21:38:25.046Z,99779.94
2022-11-06T21:41:33.236Z,99785.19
2022-11-06T21:44:37.172Z,99787.78
2022-11-06T21:47:40.725Z,99784.53
2022-11-06T21:50:45.968Z,99788.16
2022-11-06T21:54:08.245Z,99786.50
2022-11-06T21:57:12.155Z,99792.44
2022-11-06T22:00:16.726Z,99792.44
2022-11-06T22:03:20.814Z,99794.34
2022-11-06T22:06:27.723Z,99797.16
2022-11-06T22:09:31.553Z,99797.81
2022-11-06T22:12:36.154Z,99794.63
2022-11-06T22:15:39.723Z,99797.72
2022-11-06T22:18:43.688Z,99802.31
2022-11-06T22:21:48.719Z,99812.78
2022-11-06T22:24:52.549Z,99809.78
2022-11-06T22:27:56.108Z,99807.94
2022-11-06T22:30:59.968Z,99811.69
2022-11-06T22:34:03.974Z,99816.59
2022-11-06T22:37:09.292Z,99816.41
2022-11-06T22:40:13.685Z,99809.50
2022-11-06T22:43:17.391Z,99811.81
2022-11-06T22:46:23.018Z,99813.88
2022-11-06T22:49:27.259Z,99804.03
2022-11-06T22:52:32.267Z,99809.28
2022-11-06T22:55:36.084Z,99811.09
2022-11-06T22:58:39.804Z,99810.16
2022-11-06T23:01:44.066Z,99812.84
2022-11-06T23:04:47.596Z,99815.84
2022-11-06T23:07:52.917Z,99812.69
2022-11-06T23:10:57.598Z,99811.22
2022-11-06T23:14:07.482Z,99824.78
2022-11-06T23:17:12.484Z,99821.09
2022-11-06T23:20:17.125Z,99817.06
2022-11-06T23:23:22.255Z,99818.78
2022-11-06T23:26:26.073Z,99820.25
2022-11-06T23:29:29.793Z,99827.00
2022-11-06T23:32:35.844Z,99831.94
2022-11-06T23:35:39.476Z,99829.66
2022-11-06T23:38:45.629Z,99827.69
2022-11-06T23:41:49.338Z,99835.06
2022-11-06T23:45:22.023Z,99831.25
2022-11-06T23:48:25.687Z,99829.69
2022-11-06T23:51:29.587Z,99826.69
2022-11-06T23:54:34.832Z,99825.28
2022-11-06T23:57:38.779Z,99831.50
